createdAt,value
2017-09-29T00:00:52.352Z,1027.30
2017-09-29T00:01:54.185Z,1027.31
2017-09-29T00:02:56.070Z,1027.27
2017-09-29T00:03:57.965Z,1027.31
2017-09-29T00:04:59.849Z,1027.33
2017-09-29T00:06:14.056Z,1027.22
2017-09-29T00:07:15.933Z,1027.21
2017-09-29T00:08:17.821Z,1027.21
2017-09-29T00:09:19.701Z,1027.25
2017-09-29T00:10:21.519Z,1027.24
2017-09-29T00:11:23.338Z,1027.25
2017-09-29T00:12:25.222Z,1027.19
2017-09-29T00:13:27.102Z,1027.18
2017-09-29T00:14:28.997Z,1027.24
2017-09-29T00:15:43.153Z,1027.23
2017-09-29T00:16:45.034Z,1027.15
2017-09-29T00:17:46.928Z,1027.17
2017-09-29T00:18:48.810Z,1027.20
2017-09-29T00:19:50.629Z,1027.17
2017-09-29T00:20:52.447Z,1027.19
2017-09-29T00:21:54.331Z,1027.20
2017-09-29T00:22:56.223Z,1027.21
2017-09-29T00:23:58.108Z,1027.20
2017-09-29T00:25:12.261Z,1027.23
2017-09-29T00:26:14.153Z,1027.28
2017-09-29T00:27:16.038Z,1027.22
2017-09-29T00:28:17.918Z,1027.23
2017-09-29T00:29:19.737Z,1027.25
2017-09-29T00:30:21.557Z,1027.26
2017-09-29T00:31:23.442Z,1027.20
2017-09-29T00:32:25.321Z,1027.20
2017-09-29T00:33:27.208Z,1027.20
2017-09-29T00:34:41.362Z,1027.17
2017-09-29T00:35:43.242Z,1027.19
2017-09-29T00:36:45.130Z,1027.23
2017-09-29T00:37:47.011Z,1027.23
2017-09-29T00:38:48.827Z,1027.18
2017-09-29T00:39:50.649Z,1027.20
2017-09-29T00:40:52.530Z,1027.22
2017-09-29T00:41:54.413Z,1027.24
2017-09-29T00:42:56.294Z,1027.32
2017-09-29T00:44:10.452Z,1027.24
2017-09-29T00:45:12.330Z,1027.21
2017-09-29T00:46:14.212Z,1027.20
2017-09-29T00:47:16.091Z,1027.19
2017-09-29T00:48:17.907Z,1027.21
2017-09-29T00:49:19.725Z,1027.19
2017-09-29T00:50:21.609Z,1027.20
2017-09-29T00:51:23.492Z,1027.21
2017-09-29T00:52:25.373Z,1027.13
2017-09-29T00:53:39.529Z,1027.24
2017-09-29T00:54:41.413Z,1027.21
2017-09-29T00:55:43.296Z,1027.28
2017-09-29T00:56:45.177Z,1027.24
2017-09-29T00:57:46.994Z,1027.21
2017-09-29T00:58:48.812Z,1027.20
2017-09-29T00:59:50.695Z,1027.25
2017-09-29T01:00:52.576Z,1027.17
2017-09-29T01:01:54.460Z,1027.20
2017-09-29T01:03:08.615Z,1027.20
2017-09-29T01:04:10.498Z,1027.17
2017-09-29T01:05:12.382Z,1027.22
2017-09-29T01:06:14.277Z,1027.21
2017-09-29T01:07:16.091Z,1027.22
2017-09-29T01:08:17.908Z,1027.21
2017-09-29T01:09:19.795Z,1027.25
2017-09-29T01:10:21.677Z,1027.23
2017-09-29T01:11:23.561Z,1027.24
2017-09-29T01:12:37.717Z,1027.22
2017-09-29T01:13:39.601Z,1027.22
2017-09-29T01:14:41.486Z,1027.23
2017-09-29T01:15:43.369Z,1027.21
2017-09-29T01:16:45.183Z,1027.15
2017-09-29T01:17:47.000Z,1027.18
2017-09-29T01:18:48.885Z,1027.21
2017-09-29T01:19:50.765Z,1027.15
2017-09-29T01:20:52.611Z,1027.13
2017-09-29T01:22:06.814Z,1027.16
2017-09-29T01:23:08.694Z,1027.14
2017-09-29T01:24:10.585Z,1027.16
2017-09-29T01:25:12.465Z,1027.17
2017-09-29T01:26:14.294Z,1027.15
2017-09-29T01:27:16.111Z,1027.13
2017-09-29T01:28:17.994Z,1027.15
2017-09-29T01:29:19.875Z,1027.14
2017-09-29T01:30:21.770Z,1027.15
2017-09-29T01:31:35.971Z,1027.13
2017-09-29T01:32:37.851Z,1027.14
2017-09-29T01:33:39.736Z,1027.13
2017-09-29T01:34:41.615Z,1027.10
2017-09-29T01:35:43.442Z,1027.17
2017-09-29T01:36:45.262Z,1027.10
2017-09-29T01:37:47.148Z,1027.12
2017-09-29T01:38:49.029Z,1027.13
2017-09-29T01:39:50.914Z,1027.14
2017-09-29T01:41:05.067Z,1027.12
2017-09-29T01:42:06.947Z,1027.14
2017-09-29T01:43:08.834Z,1027.11
2017-09-29T01:44:10.715Z,1027.13
2017-09-29T01:45:12.532Z,1027.12
2017-09-29T01:46:14.347Z,1027.11
2017-09-29T01:47:16.229Z,1027.08
2017-09-29T01:48:18.121Z,1027.08
2017-09-29T01:49:20.002Z,1027.05
2017-09-29T01:50:34.161Z,1027.03
2017-09-29T01:51:36.045Z,1027.08
2017-09-29T01:52:37.935Z,1027.05
2017-09-29T01:53:39.820Z,1027.06
2017-09-29T01:54:41.679Z,1027.09
2017-09-29T01:55:43.478Z,1027.02
2017-09-29T01:56:45.360Z,1027.01
2017-09-29T01:57:47.253Z,1027.02
2017-09-29T01:58:49.135Z,1027.02
2017-09-29T02:00:03.293Z,1026.98
2017-09-29T02:01:05.176Z,1026.98
2017-09-29T02:02:07.063Z,1027.00
2017-09-29T02:03:08.960Z,1027.01
2017-09-29T02:04:10.783Z,1027.06
2017-09-29T02:05:12.604Z,1027.08
2017-09-29T02:06:14.487Z,1027.03
2017-09-29T02:07:16.372Z,1027.03
2017-09-29T02:08:18.271Z,1027.05
2017-09-29T02:09:32.428Z,1027.03
2017-09-29T02:10:34.311Z,1026.98
2017-09-29T02:11:36.197Z,1026.97
2017-09-29T02:12:38.082Z,1026.96
2017-09-29T02:13:39.905Z,1026.94
2017-09-29T02:14:41.724Z,1026.96
2017-09-29T02:15:43.610Z,1026.91
2017-09-29T02:16:45.494Z,1026.94
2017-09-29T02:17:47.380Z,1026.95
2017-09-29T02:19:01.537Z,1026.92
2017-09-29T02:20:03.422Z,1026.87
2017-09-29T02:21:05.312Z,1026.91
2017-09-29T02:22:07.196Z,1026.91
2017-09-29T02:23:09.019Z,1026.88
2017-09-29T02:24:10.838Z,1026.93
2017-09-29T02:25:12.729Z,1026.92
2017-09-29T02:26:14.625Z,1026.89
2017-09-29T02:27:16.511Z,1026.88
2017-09-29T02:28:30.681Z,1026.86
2017-09-29T02:29:32.564Z,1026.92
2017-09-29T02:30:34.452Z,1026.87
2017-09-29T02:31:36.336Z,1026.86
2017-09-29T02:32:38.171Z,1026.89
2017-09-29T02:33:40.000Z,1026.89
2017-09-29T02:34:42.246Z,1026.89
2017-09-29T02:35:44.161Z,1026.87
2017-09-29T02:36:46.051Z,1026.91
2017-09-29T02:38:00.214Z,1026.89
2017-09-29T02:39:02.096Z,1026.91
2017-09-29T02:40:03.987Z,1026.91
2017-09-29T02:41:05.871Z,1026.92
2017-09-29T02:42:07.706Z,1026.93
2017-09-29T02:43:09.565Z,1026.90
2017-09-29T02:44:11.410Z,1026.95
2017-09-29T02:45:13.299Z,1026.94
2017-09-29T02:46:15.201Z,1026.96
2017-09-29T02:47:29.358Z,1026.96
2017-09-29T02:48:31.242Z,1026.96
2017-09-29T02:49:33.130Z,1026.97
2017-09-29T02:50:35.017Z,1026.95
2017-09-29T02:51:36.838Z,1026.97
2017-09-29T02:52:38.658Z,1026.97
2017-09-29T02:53:40.545Z,1026.98
2017-09-29T02:54:42.430Z,1026.98
2017-09-29T02:55:44.314Z,1026.98
2017-09-29T02:56:58.570Z,1026.98
2017-09-29T02:58:00.452Z,1026.97
2017-09-29T02:59:02.340Z,1026.99
2017-09-29T03:00:04.226Z,1026.97
2017-09-29T03:01:06.058Z,1026.93
2017-09-29T03:02:07.890Z,1026.95
2017-09-29T03:03:09.774Z,1026.89
2017-09-29T03:04:11.660Z,1026.94
2017-09-29T03:05:13.549Z,1026.87
2017-09-29T03:06:27.757Z,1026.93
2017-09-29T03:07:29.641Z,1026.88
2017-09-29T03:08:31.537Z,1026.84
2017-09-29T03:09:33.424Z,1026.82
2017-09-29T03:10:35.245Z,1026.82
2017-09-29T03:11:37.077Z,1026.83
2017-09-29T03:12:38.964Z,1026.80
2017-09-29T03:13:40.849Z,1026.78
2017-09-29T03:14:42.735Z,1026.78
2017-09-29T03:15:56.941Z,1026.77
2017-09-29T03:16:58.826Z,1026.81
2017-09-29T03:18:00.713Z,1026.80
2017-09-29T03:19:02.598Z,1026.80
2017-09-29T03:20:04.417Z,1026.76
2017-09-29T03:21:06.237Z,1026.75
2017-09-29T03:22:08.122Z,1026.80
2017-09-29T03:23:10.007Z,1026.80
2017-09-29T03:24:11.891Z,1026.78
2017-09-29T03:25:26.046Z,1026.79
2017-09-29T03:26:27.930Z,1026.77
2017-09-29T03:27:29.815Z,1026.76
2017-09-29T03:28:31.698Z,1026.75
2017-09-29T03:29:33.523Z,1026.79
2017-09-29T03:30:35.350Z,1026.79
2017-09-29T03:31:37.230Z,1026.79
2017-09-29T03:32:39.114Z,1026.81
2017-09-29T03:33:41.000Z,1026.79
2017-09-29T03:34:55.156Z,1026.77
2017-09-29T03:35:57.053Z,1026.78
2017-09-29T03:36:58.938Z,1026.78
2017-09-29T03:38:00.824Z,1026.76
2017-09-29T03:39:02.686Z,1026.78
2017-09-29T03:40:04.473Z,1026.77
2017-09-29T03:41:06.359Z,1026.77
2017-09-29T03:42:08.204Z,1026.73
2017-09-29T03:43:10.025Z,1026.74
2017-09-29T03:44:24.182Z,1026.77
2017-09-29T03:45:26.066Z,1026.70
2017-09-29T03:46:27.953Z,1026.68
2017-09-29T03:47:29.836Z,1026.67
2017-09-29T03:48:31.667Z,1026.68
2017-09-29T03:49:33.478Z,1026.66
2017-09-29T03:50:35.365Z,1026.66
2017-09-29T03:51:37.251Z,1026.64
2017-09-29T03:52:39.135Z,1026.64
2017-09-29T03:53:53.290Z,1026.65
2017-09-29T03:54:55.188Z,1026.64
2017-09-29T03:55:57.077Z,1026.61
2017-09-29T03:56:58.959Z,1026.64
2017-09-29T03:58:00.780Z,1026.61
2017-09-29T03:59:02.602Z,1026.60
2017-09-29T04:00:04.486Z,1026.54
2017-09-29T04:01:06.373Z,1026.57
2017-09-29T04:02:08.260Z,1026.57
2017-09-29T04:03:22.417Z,1026.55
2017-09-29T04:04:24.308Z,1026.51
2017-09-29T04:05:26.189Z,1026.51
2017-09-29T04:06:28.072Z,1026.56
2017-09-29T04:07:29.894Z,1026.59
2017-09-29T04:08:31.719Z,1026.50
2017-09-29T04:09:33.601Z,1026.53
2017-09-29T04:10:35.486Z,1026.54
2017-09-29T04:11:37.371Z,1026.58
2017-09-29T04:12:51.528Z,1026.56
2017-09-29T04:13:53.412Z,1026.55
2017-09-29T04:14:55.299Z,1026.57
2017-09-29T04:15:57.182Z,1026.54
2017-09-29T04:16:59.008Z,1026.52
2017-09-29T04:18:00.828Z,1026.52
2017-09-29T04:19:02.711Z,1026.49
2017-09-29T04:20:04.598Z,1026.44
2017-09-29T04:21:06.485Z,1026.46
2017-09-29T04:22:20.644Z,1026.50
2017-09-29T04:23:22.529Z,1026.46
2017-09-29T04:24:24.417Z,1026.44
2017-09-29T04:25:26.303Z,1026.52
2017-09-29T04:26:28.124Z,1026.48
2017-09-29T04:27:29.943Z,1026.50
2017-09-29T04:28:31.856Z,1026.54
2017-09-29T04:29:33.712Z,1026.51
2017-09-29T04:30:35.598Z,1026.55
2017-09-29T04:31:49.760Z,1026.58
2017-09-29T04:32:51.645Z,1026.58
2017-09-29T04:33:53.533Z,1026.56
2017-09-29T04:34:55.417Z,1026.59
2017-09-29T04:35:57.250Z,1026.61
2017-09-29T04:36:59.081Z,1026.60
2017-09-29T04:38:00.969Z,1026.61
2017-09-29T04:39:02.855Z,1026.59
2017-09-29T04:40:04.742Z,1026.64
2017-09-29T04:41:18.901Z,1026.65
2017-09-29T04:42:20.789Z,1026.64
2017-09-29T04:43:22.678Z,1026.64
2017-09-29T04:44:24.565Z,1026.65
2017-09-29T04:45:26.386Z,1026.64
2017-09-29T04:46:28.208Z,1026.64
2017-09-29T04:47:30.095Z,1026.66
2017-09-29T04:48:31.991Z,1026.67
2017-09-29T04:49:33.878Z,1026.63
2017-09-29T04:50:48.086Z,1026.70
2017-09-29T04:51:49.973Z,1026.73
2017-09-29T04:52:51.861Z,1026.73
2017-09-29T04:53:53.749Z,1026.73
2017-09-29T04:54:55.574Z,1026.75
2017-09-29T04:55:57.395Z,1026.73
2017-09-29T04:56:59.280Z,1026.73
2017-09-29T04:58:01.170Z,1026.76
2017-09-29T04:59:03.060Z,1026.77
2017-09-29T05:00:17.220Z,1026.74
2017-09-29T05:01:19.105Z,1026.73
2017-09-29T05:02:20.992Z,1026.72
2017-09-29T05:03:22.884Z,1026.76
2017-09-29T05:04:24.701Z,1026.74
2017-09-29T05:05:26.523Z,1026.76
2017-09-29T05:06:28.410Z,1026.75
2017-09-29T05:07:30.296Z,1026.80
2017-09-29T05:08:32.196Z,1026.79
2017-09-29T05:09:46.357Z,1026.76
2017-09-29T05:10:48.242Z,1026.82
2017-09-29T05:11:50.130Z,1026.81
2017-09-29T05:12:52.019Z,1026.85
2017-09-29T05:13:53.850Z,1026.88
2017-09-29T05:14:55.671Z,1026.84
2017-09-29T05:15:57.558Z,1026.86
2017-09-29T05:16:59.446Z,1026.92
2017-09-29T05:18:01.335Z,1026.90
2017-09-29T05:19:15.496Z,1026.93
2017-09-29T05:20:17.386Z,1026.96
2017-09-29T05:21:19.272Z,1027.00
2017-09-29T05:22:21.162Z,1027.03
2017-09-29T05:23:22.989Z,1027.02
2017-09-29T05:24:24.814Z,1026.99
2017-09-29T05:25:26.703Z,1027.00
2017-09-29T05:26:28.590Z,1026.97
2017-09-29T05:27:30.481Z,1026.96
2017-09-29T05:28:44.651Z,1026.99
2017-09-29T05:29:46.534Z,1026.99
2017-09-29T05:30:48.421Z,1027.00
2017-09-29T05:31:50.310Z,1026.98
2017-09-29T05:32:52.140Z,1026.97
2017-09-29T05:33:53.969Z,1027.01
2017-09-29T05:34:55.874Z,1027.02
2017-09-29T05:35:57.769Z,1026.95
2017-09-29T05:36:59.655Z,1027.00
2017-09-29T05:38:13.817Z,1027.02
2017-09-29T05:39:15.707Z,1027.04
2017-09-29T05:40:17.600Z,1027.01
2017-09-29T05:41:19.493Z,1027.00
2017-09-29T05:42:21.318Z,1027.00
2017-09-29T05:43:23.169Z,1027.10
2017-09-29T05:44:25.049Z,1027.03
2017-09-29T05:45:26.939Z,1027.02
2017-09-29T05:46:28.829Z,1027.02
2017-09-29T05:47:42.992Z,1027.04
2017-09-29T05:48:44.881Z,1027.04
2017-09-29T05:49:46.771Z,1027.05
2017-09-29T05:50:48.663Z,1027.03
2017-09-29T05:51:50.499Z,1027.00
2017-09-29T05:52:52.325Z,1027.04
2017-09-29T05:53:54.216Z,1027.03
2017-09-29T05:54:56.108Z,1027.01
2017-09-29T05:55:57.999Z,1026.99
2017-09-29T05:57:12.162Z,1027.02
2017-09-29T05:58:14.050Z,1027.00
2017-09-29T05:59:15.952Z,1026.98
2017-09-29T06:00:17.840Z,1026.99
2017-09-29T06:01:19.667Z,1027.03
2017-09-29T06:02:21.492Z,1027.00
2017-09-29T06:03:23.385Z,1027.02
2017-09-29T06:04:25.276Z,1027.02
2017-09-29T06:05:27.165Z,1027.08
2017-09-29T06:06:41.328Z,1027.00
2017-09-29T06:07:43.221Z,1027.01
2017-09-29T06:08:45.110Z,1027.01
2017-09-29T06:09:47.002Z,1027.03
2017-09-29T06:10:48.828Z,1027.03
2017-09-29T06:11:50.654Z,1027.07
2017-09-29T06:12:52.541Z,1027.06
2017-09-29T06:13:54.445Z,1027.08
2017-09-29T06:14:56.335Z,1027.04
2017-09-29T06:16:10.498Z,1027.03
2017-09-29T06:17:12.387Z,1027.09
2017-09-29T06:18:14.280Z,1027.09
2017-09-29T06:19:16.172Z,1027.10
2017-09-29T06:20:18.005Z,1027.13
2017-09-29T06:21:19.826Z,1027.11
2017-09-29T06:22:21.722Z,1027.08
2017-09-29T06:23:23.606Z,1027.10
2017-09-29T06:24:25.508Z,1027.09
2017-09-29T06:25:39.672Z,1027.08
2017-09-29T06:26:41.562Z,1027.07
2017-09-29T06:27:43.450Z,1027.10
2017-09-29T06:28:45.340Z,1027.06
2017-09-29T06:29:47.181Z,1027.08
2017-09-29T06:30:49.006Z,1027.10
2017-09-29T06:31:50.897Z,1027.13
2017-09-29T06:32:52.787Z,1027.12
2017-09-29T06:33:54.677Z,1027.14
2017-09-29T06:35:08.840Z,1027.14
2017-09-29T06:36:10.730Z,1027.14
2017-09-29T06:37:12.626Z,1027.14
2017-09-29T06:38:14.524Z,1027.12
2017-09-29T06:39:16.343Z,1027.15
2017-09-29T06:40:18.172Z,1027.17
2017-09-29T06:41:20.066Z,1027.13
2017-09-29T06:42:21.955Z,1027.08
2017-09-29T06:43:23.848Z,1027.14
2017-09-29T06:44:38.015Z,1027.13
2017-09-29T06:45:39.908Z,1027.16
2017-09-29T06:46:41.802Z,1027.16
2017-09-29T06:47:43.696Z,1027.08
2017-09-29T06:48:45.524Z,1027.07
2017-09-29T06:49:47.353Z,1027.09
2017-09-29T06:50:49.255Z,1027.11
2017-09-29T06:51:51.140Z,1027.13
2017-09-29T06:52:53.032Z,1027.14
2017-09-29T06:54:07.198Z,1027.13
2017-09-29T06:55:09.091Z,1027.15
2017-09-29T06:56:10.987Z,1027.16
2017-09-29T06:57:12.890Z,1027.16
2017-09-29T06:58:14.720Z,1027.14
2017-09-29T06:59:16.549Z,1027.21
2017-09-29T07:00:18.441Z,1027.14
2017-09-29T07:01:20.337Z,1027.14
2017-09-29T07:02:22.232Z,1027.18
2017-09-29T07:03:36.396Z,1027.22
2017-09-29T07:04:38.289Z,1027.21
2017-09-29T07:05:40.183Z,1027.18
2017-09-29T07:06:42.078Z,1027.21
2017-09-29T07:07:43.916Z,1027.20
2017-09-29T07:08:45.746Z,1027.24
2017-09-29T07:09:47.637Z,1027.20
2017-09-29T07:10:49.530Z,1027.23
2017-09-29T07:11:51.423Z,1027.26
2017-09-29T07:13:05.587Z,1027.19
2017-09-29T07:14:07.477Z,1027.24
2017-09-29T07:15:09.369Z,1027.23
2017-09-29T07:16:11.262Z,1027.21
2017-09-29T07:17:13.118Z,1027.23
2017-09-29T07:18:14.951Z,1027.28
2017-09-29T07:19:16.843Z,1027.23
2017-09-29T07:20:18.740Z,1027.24
2017-09-29T07:21:20.632Z,1027.22
2017-09-29T07:22:34.856Z,1027.28
2017-09-29T07:23:36.750Z,1027.27
2017-09-29T07:24:38.649Z,1027.25
2017-09-29T07:25:40.537Z,1027.29
2017-09-29T07:26:42.367Z,1027.25
2017-09-29T07:27:44.196Z,1027.25
2017-09-29T07:28:46.089Z,1027.25
2017-09-29T07:29:47.999Z,1027.28
2017-09-29T07:30:49.921Z,1027.28
2017-09-29T07:32:04.088Z,1027.32
2017-09-29T07:33:05.981Z,1027.30
2017-09-29T07:34:07.877Z,1027.29
2017-09-29T07:35:09.770Z,1027.29
2017-09-29T07:36:11.601Z,1027.28
2017-09-29T07:37:13.429Z,1027.26
2017-09-29T07:38:15.370Z,1027.32
2017-09-29T07:39:17.265Z,1027.33
2017-09-29T07:40:19.164Z,1027.32
2017-09-29T07:41:33.429Z,1027.29
2017-09-29T07:42:35.321Z,1027.28
2017-09-29T07:43:37.218Z,1027.27
2017-09-29T07:44:39.525Z,1027.24
2017-09-29T07:45:41.322Z,1027.24
2017-09-29T07:46:43.150Z,1027.23
2017-09-29T07:47:45.051Z,1027.19
2017-09-29T07:48:46.937Z,1027.19
2017-09-29T07:49:48.832Z,1027.20
2017-09-29T07:51:03.003Z,1027.22
2017-09-29T07:52:04.890Z,1027.20
2017-09-29T07:53:06.782Z,1027.23
2017-09-29T07:54:08.675Z,1027.25
2017-09-29T07:55:10.509Z,1027.26
2017-09-29T07:56:12.337Z,1027.24
2017-09-29T07:57:14.233Z,1027.24
2017-09-29T07:58:16.127Z,1027.24
2017-09-29T07:59:18.019Z,1027.28
2017-09-29T08:00:32.191Z,1027.26
2017-09-29T08:01:34.083Z,1027.27
2017-09-29T08:02:35.975Z,1027.23
2017-09-29T08:03:37.870Z,1027.21
2017-09-29T08:04:39.705Z,1027.22
2017-09-29T08:05:41.539Z,1027.24
2017-09-29T08:06:43.427Z,1027.25
2017-09-29T08:07:45.324Z,1027.30
2017-09-29T08:08:47.224Z,1027.29
2017-09-29T08:10:01.384Z,1027.23
2017-09-29T08:11:03.278Z,1027.25
2017-09-29T08:12:05.173Z,1027.29
2017-09-29T08:13:07.067Z,1027.27
2017-09-29T08:14:09.658Z,1027.24
2017-09-29T08:15:11.466Z,1027.16
2017-09-29T08:16:13.348Z,1027.14
2017-09-29T08:17:15.242Z,1027.19
2017-09-29T08:18:17.167Z,1027.16
2017-09-29T08:19:31.335Z,1027.14
2017-09-29T08:20:33.528Z,1027.15
2017-09-29T08:21:35.385Z,1027.14
2017-09-29T08:22:37.278Z,1027.12
2017-09-29T08:23:39.106Z,1027.11
2017-09-29T08:24:40.935Z,1027.12
2017-09-29T08:25:42.840Z,1027.11
2017-09-29T08:26:44.740Z,1027.12
2017-09-29T08:27:46.632Z,1027.10
2017-09-29T08:29:00.796Z,1027.07
2017-09-29T08:30:02.693Z,1027.04
2017-09-29T08:31:04.582Z,1027.05
2017-09-29T08:32:06.483Z,1027.11
2017-09-29T08:33:08.304Z,1027.08
2017-09-29T08:34:10.132Z,1027.03
2017-09-29T08:35:12.026Z,1027.08
2017-09-29T08:36:13.918Z,1027.05
2017-09-29T08:37:15.811Z,1027.04
2017-09-29T08:38:29.977Z,1027.03
2017-09-29T08:39:31.867Z,1027.02
2017-09-29T08:40:33.760Z,1026.96
2017-09-29T08:41:35.665Z,1026.94
2017-09-29T08:42:37.496Z,1026.98
2017-09-29T08:43:39.337Z,1026.99
2017-09-29T08:44:41.219Z,1026.97
2017-09-29T08:45:43.114Z,1026.97
2017-09-29T08:46:45.006Z,1026.96
2017-09-29T08:47:59.172Z,1026.93
2017-09-29T08:49:01.069Z,1026.94
2017-09-29T08:50:02.962Z,1026.93
2017-09-29T08:51:04.856Z,1026.91
2017-09-29T08:52:06.685Z,1026.89
2017-09-29T08:53:08.515Z,1026.90
2017-09-29T08:54:10.408Z,1026.90
2017-09-29T08:55:12.306Z,1026.90
2017-09-29T08:56:14.201Z,1026.88
2017-09-29T08:57:28.366Z,1026.84
2017-09-29T08:58:30.258Z,1026.90
2017-09-29T08:59:32.152Z,1026.83
2017-09-29T09:00:34.047Z,1026.83
2017-09-29T09:01:35.876Z,1026.83
2017-09-29T09:02:37.706Z,1026.79
2017-09-29T09:03:39.605Z,1026.79
2017-09-29T09:04:41.498Z,1026.80
2017-09-29T09:05:43.393Z,1026.85
2017-09-29T09:06:57.560Z,1026.83
2017-09-29T09:07:59.453Z,1026.79
2017-09-29T09:09:01.346Z,1026.80
2017-09-29T09:10:03.246Z,1026.81
2017-09-29T09:11:05.077Z,1026.74
2017-09-29T09:12:06.909Z,1026.76
2017-09-29T09:13:08.803Z,1026.73
2017-09-29T09:14:10.726Z,1026.84
2017-09-29T09:15:12.628Z,1026.74
2017-09-29T09:16:26.844Z,1026.73
2017-09-29T09:17:28.738Z,1026.68
2017-09-29T09:18:30.633Z,1026.72
2017-09-29T09:19:32.527Z,1026.67
2017-09-29T09:20:34.355Z,1026.67
2017-09-29T09:21:36.185Z,1026.63
2017-09-29T09:22:38.082Z,1026.67
2017-09-29T09:23:39.971Z,1026.67
2017-09-29T09:24:41.867Z,1026.67
2017-09-29T09:25:56.041Z,1026.62
2017-09-29T09:26:57.925Z,1026.66
2017-09-29T09:27:59.823Z,1026.62
2017-09-29T09:29:01.735Z,1026.60
2017-09-29T09:30:03.576Z,1026.64
2017-09-29T09:31:05.406Z,1026.61
2017-09-29T09:32:07.298Z,1026.59
2017-09-29T09:33:09.206Z,1026.63
2017-09-29T09:34:11.095Z,1026.62
2017-09-29T09:35:25.261Z,1026.61
2017-09-29T09:36:27.156Z,1026.60
2017-09-29T09:37:29.052Z,1026.58
2017-09-29T09:38:30.948Z,1026.57
2017-09-29T09:39:32.777Z,1026.60
2017-09-29T09:40:34.610Z,1026.58
2017-09-29T09:41:36.503Z,1026.56
2017-09-29T09:42:38.415Z,1026.55
2017-09-29T09:43:40.310Z,1026.60
2017-09-29T09:44:54.478Z,1026.62
2017-09-29T09:45:56.417Z,1026.55
2017-09-29T09:46:58.313Z,1026.52
2017-09-29T09:48:00.213Z,1026.54
2017-09-29T09:49:02.037Z,1026.56
2017-09-29T09:50:03.865Z,1026.57
2017-09-29T09:51:05.759Z,1026.55
2017-09-29T09:52:07.653Z,1026.57
2017-09-29T09:53:09.545Z,1026.52
2017-09-29T09:54:23.711Z,1026.48
2017-09-29T09:55:25.603Z,1026.50
2017-09-29T09:56:27.496Z,1026.52
2017-09-29T09:57:29.391Z,1026.49
2017-09-29T09:58:31.221Z,1026.52
2017-09-29T09:59:33.051Z,1026.49
2017-09-29T10:00:34.953Z,1026.48
2017-09-29T10:01:36.841Z,1026.43
2017-09-29T10:02:38.733Z,1026.39
2017-09-29T10:03:52.900Z,1026.47
2017-09-29T10:04:54.792Z,1026.41
2017-09-29T10:05:56.687Z,1026.39
2017-09-29T10:06:58.582Z,1026.46
2017-09-29T10:08:00.414Z,1026.38
2017-09-29T10:09:02.244Z,1026.32
2017-09-29T10:10:04.137Z,1026.34
2017-09-29T10:11:06.031Z,1026.26
2017-09-29T10:12:07.925Z,1026.35
2017-09-29T10:13:22.096Z,1026.40
2017-09-29T10:14:23.985Z,1026.35
2017-09-29T10:15:25.996Z,1026.35
2017-09-29T10:16:28.499Z,1026.31
2017-09-29T10:17:30.335Z,1026.26
2017-09-29T10:18:32.166Z,1026.31
2017-09-29T10:19:34.061Z,1026.30
2017-09-29T10:20:35.954Z,1026.24
2017-09-29T10:21:37.865Z,1026.29
2017-09-29T10:22:52.027Z,1026.28
2017-09-29T10:23:53.919Z,1026.27
2017-09-29T10:24:55.813Z,1026.23
2017-09-29T10:25:57.713Z,1026.28
2017-09-29T10:26:59.537Z,1026.24
2017-09-29T10:28:01.368Z,1026.27
2017-09-29T10:29:03.260Z,1026.24
2017-09-29T10:30:05.154Z,1026.30
2017-09-29T10:31:07.008Z,1026.23
2017-09-29T10:32:21.171Z,1026.18
2017-09-29T10:33:23.091Z,1026.17
2017-09-29T10:34:24.985Z,1026.20
2017-09-29T10:35:26.877Z,1026.21
2017-09-29T10:36:28.711Z,1026.23
2017-09-29T10:37:30.559Z,1026.21
2017-09-29T10:38:32.461Z,1026.12
2017-09-29T10:39:34.355Z,1026.16
2017-09-29T10:40:36.260Z,1026.17
2017-09-29T10:41:50.431Z,1026.16
2017-09-29T10:42:52.319Z,1026.20
2017-09-29T10:43:54.212Z,1026.17
2017-09-29T10:44:56.256Z,1026.17
2017-09-29T10:45:58.090Z,1026.15
2017-09-29T10:46:59.916Z,1026.15
2017-09-29T10:48:01.809Z,1026.10
2017-09-29T10:49:03.706Z,1026.15
2017-09-29T10:50:05.600Z,1026.21
2017-09-29T10:51:19.768Z,1026.17
2017-09-29T10:52:21.659Z,1026.21
2017-09-29T10:53:23.583Z,1026.14
2017-09-29T10:54:25.451Z,1026.12
2017-09-29T10:55:27.280Z,1026.16
2017-09-29T10:56:29.109Z,1026.15
2017-09-29T10:57:31.001Z,1026.14
2017-09-29T10:58:32.894Z,1026.13
2017-09-29T10:59:34.790Z,1026.15
2017-09-29T11:00:49.064Z,1026.11
2017-09-29T11:01:50.958Z,1026.14
2017-09-29T11:02:52.851Z,1026.13
2017-09-29T11:03:54.748Z,1026.15
2017-09-29T11:04:56.580Z,1026.10
2017-09-29T11:05:58.410Z,1026.11
2017-09-29T11:07:00.306Z,1026.08
2017-09-29T11:08:02.198Z,1026.09
2017-09-29T11:09:04.095Z,1026.11
2017-09-29T11:10:18.262Z,1026.09
2017-09-29T11:11:20.154Z,1026.05
2017-09-29T11:12:22.054Z,1026.10
2017-09-29T11:13:23.943Z,1026.09
2017-09-29T11:14:25.773Z,1026.06
2017-09-29T11:15:27.601Z,1026.05
2017-09-29T11:16:29.505Z,1026.01
2017-09-29T11:17:31.399Z,1026.00
2017-09-29T11:18:33.292Z,1025.95
2017-09-29T11:19:47.459Z,1026.01
2017-09-29T11:20:49.352Z,1026.03
2017-09-29T11:21:51.347Z,1025.98
2017-09-29T11:22:53.238Z,1026.03
2017-09-29T11:23:55.071Z,1026.02
2017-09-29T11:24:56.927Z,1026.03
2017-09-29T11:25:58.901Z,1026.03
2017-09-29T11:27:00.803Z,1026.03
2017-09-29T11:28:02.695Z,1026.04
2017-09-29T11:29:16.862Z,1026.09
2017-09-29T11:30:18.754Z,1026.06
2017-09-29T11:31:20.675Z,1026.04
2017-09-29T11:32:22.597Z,1026.04
2017-09-29T11:33:24.460Z,1026.03
2017-09-29T11:34:26.297Z,1026.00
2017-09-29T11:35:28.184Z,1026.02
2017-09-29T11:36:30.077Z,1026.00
2017-09-29T11:37:31.975Z,1026.06
2017-09-29T11:38:46.228Z,1026.01
2017-09-29T11:39:48.530Z,1026.00
2017-09-29T11:40:50.624Z,1025.97
2017-09-29T11:41:52.517Z,1025.95
2017-09-29T11:42:54.407Z,1025.95
2017-09-29T11:43:56.362Z,1025.97
2017-09-29T11:44:58.294Z,1025.92
2017-09-29T11:46:00.199Z,1025.95
2017-09-29T11:47:02.095Z,1025.90
2017-09-29T11:48:16.262Z,1025.92
2017-09-29T11:49:18.154Z,1025.91
2017-09-29T11:50:20.046Z,1025.91
2017-09-29T11:51:21.941Z,1025.90
2017-09-29T11:52:23.894Z,1025.90
2017-09-29T11:53:25.759Z,1025.94
2017-09-29T11:54:27.651Z,1025.93
2017-09-29T11:55:29.600Z,1025.92
2017-09-29T11:56:31.523Z,1025.89
2017-09-29T11:57:45.750Z,1025.92
2017-09-29T11:58:47.644Z,1025.87
2017-09-29T11:59:49.537Z,1025.88
2017-09-29T12:00:51.454Z,1025.88
2017-09-29T12:01:53.284Z,1025.84
2017-09-29T12:02:55.115Z,1025.87
2017-09-29T12:03:57.004Z,1025.88
2017-09-29T12:04:58.899Z,1025.83
2017-09-29T12:06:00.796Z,1025.83
2017-09-29T12:07:14.987Z,1025.80
2017-09-29T12:08:16.918Z,1025.77
2017-09-29T12:09:18.811Z,1025.79
2017-09-29T12:10:20.717Z,1025.76
2017-09-29T12:11:22.566Z,1025.77
2017-09-29T12:12:24.380Z,1025.78
2017-09-29T12:13:26.275Z,1025.77
2017-09-29T12:14:28.167Z,1025.75
2017-09-29T12:15:30.065Z,1025.77
2017-09-29T12:16:44.262Z,1025.76
2017-09-29T12:17:46.151Z,1025.71
2017-09-29T12:18:48.083Z,1025.72
2017-09-29T12:19:49.948Z,1025.71
2017-09-29T12:20:51.778Z,1025.73
2017-09-29T12:21:53.605Z,1025.70
2017-09-29T12:22:55.498Z,1025.71
2017-09-29T12:23:57.390Z,1025.73
2017-09-29T12:24:59.294Z,1025.72
2017-09-29T12:26:13.460Z,1025.73
2017-09-29T12:27:15.362Z,1025.68
2017-09-29T12:28:17.319Z,1025.69
2017-09-29T12:29:19.193Z,1025.67
2017-09-29T12:30:21.023Z,1025.67
2017-09-29T12:31:22.864Z,1025.68
2017-09-29T12:32:24.755Z,1025.67
2017-09-29T12:33:26.669Z,1025.67
2017-09-29T12:34:29.034Z,1025.67
2017-09-29T12:35:43.345Z,1025.64
2017-09-29T12:36:45.238Z,1025.69
2017-09-29T12:37:47.131Z,1025.67
2017-09-29T12:38:49.028Z,1025.68
2017-09-29T12:39:50.857Z,1025.65
2017-09-29T12:40:52.686Z,1025.63
2017-09-29T12:41:54.581Z,1025.63
2017-09-29T12:42:56.552Z,1025.65
2017-09-29T12:43:58.493Z,1025.64
2017-09-29T12:45:25.063Z,1025.68